Time;durP1;ratioP1;P1;durP2;ratioP2;P2;SDS_P1;SDS_P2;PMS_P1;PMS_P2;Temp;Humidity;BMP_temperature;BMP_pressure;BME280_temperature;BME280_humidity;BME280_pressure;Samples;Min_cycle;Max_cycle;Signal;HPM_P1;HPM_P2
2021/08/15 19:41:19;;;;;;;4.90;3.00;;;22.70;92.00;;;;;;8499280;27;21063;-75
2021/08/15 19:45:19;;;;;;;4.90;3.30;;;23.40;91.30;;;;;;8488214;27;20922;-74
2021/08/15 19:49:20;;;;;;;3.77;3.17;;;24.50;88.60;;;;;;8497591;27;20188;-74
2021/08/15 19:53:21;;;;;;;3.07;2.77;;;25.00;86.10;;;;;;8501893;27;20188;-75
2021/08/15 19:57:21;;;;;;;5.10;3.83;;;25.20;85.30;;;;;;8507196;27;20179;-73
2021/08/15 20:01:22;;;;;;;4.53;2.83;;;25.30;85.40;;;;;;8506863;27;20667;-75
2021/08/15 20:05:24;;;;;;;5.53;2.70;;;25.30;85.20;;;;;;8511651;27;20909;-75
2021/08/15 20:09:25;;;;;;;4.70;2.97;;;25.20;85.00;;;;;;8508038;27;20184;-76
2021/08/15 20:13:26;;;;;;;6.13;3.00;;;25.10;85.00;;;;;;8501589;27;20490;-76
2021/08/15 20:17:27;;;;;;;8.00;2.77;;;25.10;85.30;;;;;;8504244;27;20192;-74
2021/08/15 20:21:27;;;;;;;4.17;3.00;;;25.00;85.30;;;;;;8547387;27;20486;-74
2021/08/15 20:25:28;;;;;;;17.23;2.50;;;24.90;85.60;;;;;;8506302;27;20683;-75
2021/08/15 20:29:30;;;;;;;4.90;3.57;;;24.80;85.70;;;;;;8546325;27;20647;-74
2021/08/15 20:33:31;;;;;;;8.20;3.37;;;24.80;86.20;;;;;;8503272;27;20191;-75
2021/08/15 20:37:32;;;;;;;4.07;3.63;;;24.80;86.70;;;;;;8508367;27;20437;-75
2021/08/15 20:41:33;;;;;;;9.80;3.47;;;24.80;87.00;;;;;;8505243;27;20249;-74
2021/08/15 20:45:35;;;;;;;5.00;2.60;;;24.80;86.60;;;;;;8509789;27;20180;-75
2021/08/15 20:49:35;;;;;;;6.03;3.93;;;24.90;86.70;;;;;;8503376;27;20468;-78
2021/08/15 20:53:36;;;;;;;8.33;2.80;;;24.90;86.20;;;;;;8479576;27;20439;-74
2021/08/15 20:57:37;;;;;;;5.93;2.77;;;24.90;86.50;;;;;;8473435;27;20208;-75
2021/08/15 21:01:38;;;;;;;5.23;3.37;;;24.90;86.80;;;;;;8476935;27;20177;-75
2021/08/15 21:05:39;;;;;;;4.93;3.20;;;24.80;85.70;;;;;;8481203;27;20181;-74
2021/08/15 21:09:39;;;;;;;12.43;3.40;;;24.80;85.00;;;;;;8477924;27;20212;-74
2021/08/15 21:13:40;;;;;;;4.70;3.27;;;24.80;84.60;;;;;;8477060;27;20446;-75
2021/08/15 21:17:41;;;;;;;5.33;3.27;;;24.70;83.80;;;;;;8480297;27;20584;-75
2021/08/15 21:21:41;;;;;;;5.57;2.67;;;24.80;83.10;;;;;;8486599;27;20648;-75
2021/08/15 21:25:42;;;;;;;5.77;3.40;;;24.70;84.80;;;;;;8475519;27;20240;-75
2021/08/15 21:29:43;;;;;;;7.30;3.67;;;24.50;85.90;;;;;;8479947;27;21023;-75
2021/08/15 21:33:43;;;;;;;8.20;3.67;;;24.40;86.90;;;;;;8477682;27;20188;-74
2021/08/15 21:37:44;;;;;;;6.80;4.17;;;24.20;87.40;;;;;;8488992;27;20750;-74
2021/08/15 21:41:45;;;;;;;5.40;4.50;;;24.10;88.00;;;;;;8469147;27;20913;-74
2021/08/15 21:45:45;;;;;;;5.67;4.20;;;24.00;88.50;;;;;;8485543;27;20180;-75
2021/08/15 21:49:46;;;;;;;7.57;3.93;;;23.90;89.00;;;;;;8484018;27;20232;-74
2021/08/15 21:53:47;;;;;;;8.10;4.53;;;23.80;89.50;;;;;;8483612;27;20262;-74
2021/08/15 21:57:47;;;;;;;7.80;3.93;;;23.70;90.00;;;;;;8474708;27;20212;-74
2021/08/15 22:01:48;;;;;;;7.37;4.80;;;23.60;90.20;;;;;;8484221;27;20187;-74
2021/08/15 22:05:48;;;;;;;7.33;4.70;;;23.50;90.60;;;;;;8468074;27;20648;-74
2021/08/15 22:09:49;;;;;;;11.23;5.70;;;23.40;90.80;;;;;;8466711;27;20218;-74
2021/08/15 22:13:50;;;;;;;7.50;4.67;;;23.30;91.20;;;;;;8479670;27;20702;-74
2021/08/15 22:17:50;;;;;;;11.13;6.17;;;23.20;91.50;;;;;;8469403;27;20279;-75
2021/08/15 22:21:51;;;;;;;8.20;4.93;;;23.20;91.80;;;;;;8475529;27;20191;-75
2021/08/15 22:25:54;;;;;;;15.20;6.03;;;23.10;92.10;;;;;;8470090;27;20664;-75
2021/08/15 22:29:54;;;;;;;13.83;7.77;;;23.10;92.50;;;;;;8467506;27;20559;-74
2021/08/15 22:33:55;;;;;;;12.63;6.30;;;23.10;92.60;;;;;;8469501;27;20943;-73
2021/08/15 22:37:57;;;;;;;22.33;6.90;;;23.10;92.80;;;;;;8479950;27;20244;-74
2021/08/15 22:41:58;;;;;;;17.93;8.47;;;23.00;93.10;;;;;;8465500;27;20180;-74
2021/08/15 22:46:00;;;;;;;13.93;6.90;;;22.90;93.40;;;;;;8470091;27;20433;-74
2021/08/15 22:50:00;;;;;;;17.13;7.23;;;22.90;93.70;;;;;;8465694;27;20203;-74
2021/08/15 22:54:01;;;;;;;15.23;8.00;;;22.90;93.80;;;;;;8469187;27;20413;-75
2021/08/15 22:58:02;;;;;;;20.00;8.90;;;22.90;93.90;;;;;;8471155;27;20756;-75
2021/08/15 23:02:03;;;;;;;13.63;8.67;;;22.90;93.90;;;;;;8471868;27;20208;-75
2021/08/15 23:06:04;;;;;;;28.20;12.03;;;22.80;93.90;;;;;;8473079;27;20499;-75
2021/08/15 23:10:06;;;;;;;15.87;9.90;;;22.80;94.10;;;;;;8454850;27;20471;-76
2021/08/15 23:14:07;;;;;;;18.90;11.70;;;22.70;94.20;;;;;;8473471;27;20188;-74
2021/08/15 23:18:09;;;;;;;23.43;10.57;;;22.60;93.90;;;;;;8475690;27;20432;-75
2021/08/15 23:22:09;;;;;;;13.00;7.33;;;22.50;93.90;;;;;;8454196;27;20557;-73
2021/08/15 23:26:10;;;;;;;14.00;6.87;;;22.40;93.60;;;;;;8475636;27;20916;-74
2021/08/15 23:30:12;;;;;;;18.87;8.00;;;22.30;93.60;;;;;;8475524;27;20205;-73
2021/08/15 23:34:13;;;;;;;13.80;6.63;;;22.20;93.70;;;;;;8464695;27;20449;-74
2021/08/15 23:38:14;;;;;;;11.90;6.20;;;22.10;93.90;;;;;;8466448;27;20580;-73
2021/08/15 23:42:15;;;;;;;25.30;6.90;;;22.00;94.10;;;;;;8477199;27;20180;-73
2021/08/15 23:46:15;;;;;;;12.03;6.73;;;21.90;94.30;;;;;;8470160;27;20448;-73
2021/08/15 23:50:16;;;;;;;8.67;6.00;;;21.80;94.50;;;;;;8466866;27;20180;-75
2021/08/15 23:54:16;;;;;;;15.23;7.50;;;21.70;94.60;;;;;;8475962;27;20204;-75
2021/08/15 23:58:18;;;;;;;10.53;5.87;;;21.60;94.80;;;;;;8501356;27;20223;-73
